createdAt,value
2019-04-23T00:01:16.512Z,12.30
2019-04-23T00:03:40.226Z,12.30
2019-04-23T00:09:05.431Z,12.20
2019-04-23T00:11:48.111Z,12.20
2019-04-23T00:14:09.572Z,12.20
2019-04-23T00:16:45.964Z,12.10
2019-04-23T00:19:16.833Z,12.10
2019-04-23T00:22:29.075Z,12.10
2019-04-23T00:25:28.558Z,12.00
2019-04-23T00:27:38.180Z,12.00
2019-04-23T00:30:10.476Z,12.00
2019-04-23T00:32:44.616Z,12.00
2019-04-23T00:35:16.330Z,12.00
2019-04-23T00:37:47.708Z,12.00
2019-04-23T00:40:30.313Z,11.90
2019-04-23T00:42:53.283Z,11.90
2019-04-23T00:45:41.223Z,11.90
2019-04-23T00:48:09.299Z,11.90
2019-04-23T00:50:48.257Z,11.90
2019-04-23T00:53:17.747Z,11.90
2019-04-23T00:55:52.756Z,11.90
2019-04-23T00:58:32.308Z,11.80
2019-04-23T01:03:25.219Z,11.80
2019-04-23T01:06:08.127Z,11.70
2019-04-23T01:08:39.986Z,11.80
2019-04-23T01:11:16.675Z,11.70
2019-04-23T01:14:01.044Z,11.60
2019-04-23T01:16:22.931Z,11.60
2019-04-23T01:19:29.322Z,11.60
2019-04-23T01:21:34.791Z,11.60
2019-04-23T01:24:30.714Z,11.60
2019-04-23T01:30:15.901Z,11.70
2019-04-23T01:32:45.866Z,11.70
2019-04-23T01:37:46.531Z,11.70
2019-04-23T01:43:02.970Z,11.80
2019-04-23T01:45:40.971Z,11.70
2019-04-23T01:48:04.777Z,11.60
2019-04-23T01:50:52.227Z,11.60
2019-04-23T01:53:22.603Z,11.60
2019-04-23T01:55:53.856Z,11.50
2019-04-23T01:58:38.813Z,11.50
2019-04-23T02:01:00.780Z,11.50
2019-04-23T02:03:36.603Z,11.50
2019-04-23T02:06:07.037Z,11.40
2019-04-23T02:08:41.978Z,11.50
2019-04-23T02:11:11.492Z,11.50
2019-04-23T02:13:50.870Z,11.40
2019-04-23T02:16:24.754Z,11.40
2019-04-23T02:18:59.636Z,11.40
2019-04-23T02:21:35.257Z,11.40
2019-04-23T02:24:03.683Z,11.30
2019-04-23T02:29:28.607Z,11.30
2019-04-23T02:34:51.288Z,11.30
2019-04-23T02:36:59.921Z,11.30
2019-04-23T02:39:51.921Z,11.40
2019-04-23T02:42:47.099Z,11.40
2019-04-23T02:44:48.952Z,11.30
2019-04-23T02:50:29.695Z,11.30
2019-04-23T02:55:08.775Z,11.20
2019-04-23T02:57:37.106Z,11.20
2019-04-23T03:06:14.923Z,11.20
2019-04-23T03:07:59.825Z,11.10
2019-04-23T03:10:21.028Z,11.10
2019-04-23T03:13:01.645Z,11.10
2019-04-23T03:21:35.658Z,11.00
2019-04-23T03:47:24.902Z,10.80
2019-04-23T03:50:09.355Z,10.80
2019-04-23T03:53:03.247Z,10.70
2019-04-23T03:55:06.053Z,10.70
2019-04-23T04:00:24.667Z,10.60
2019-04-23T04:03:02.208Z,10.70
2019-04-23T04:05:33.800Z,10.60
2019-04-23T04:10:40.980Z,10.70
2019-04-23T04:13:07.285Z,10.80
2019-04-23T04:20:48.907Z,10.80
2019-04-23T04:28:48.840Z,10.90
2019-04-23T04:31:05.528Z,10.90
2019-04-23T04:33:54.542Z,10.90
2019-04-23T04:36:14.058Z,10.80
2019-04-23T04:41:31.129Z,10.70
2019-04-23T04:44:07.331Z,10.70
2019-04-23T04:51:49.842Z,10.90
2019-04-23T04:54:21.560Z,10.80
2019-04-23T05:04:30.791Z,11.00
2019-04-23T05:09:40.560Z,11.10
2019-04-23T05:12:14.306Z,11.20
2019-04-23T05:14:43.561Z,11.20
2019-04-23T05:17:27.592Z,11.30
2019-04-23T05:22:36.311Z,11.50
2019-04-23T05:24:55.446Z,11.70
2019-04-23T05:27:42.710Z,11.80
2019-04-23T05:30:07.810Z,11.80
2019-04-23T05:32:43.182Z,11.80
2019-04-23T05:35:20.690Z,11.90
2019-04-23T05:38:05.364Z,12.00
2019-04-23T05:40:30.401Z,11.90
2019-04-23T05:42:53.234Z,11.90
2019-04-23T05:45:31.821Z,12.10
2019-04-23T05:48:08.331Z,12.10
2019-04-23T05:53:14.798Z,12.30
2019-04-23T05:55:49.366Z,12.40
2019-04-23T05:58:22.086Z,12.50
2019-04-23T06:01:28.189Z,12.50
2019-04-23T06:03:29.393Z,12.60
2019-04-23T06:06:15.673Z,12.70
2019-04-23T06:08:38.470Z,12.70
2019-04-23T06:11:08.537Z,12.70
2019-04-23T06:13:52.601Z,12.70
2019-04-23T06:16:22.263Z,12.70
2019-04-23T06:18:59.257Z,12.70
2019-04-23T06:21:38.531Z,12.50
2019-04-23T06:24:10.003Z,12.50
2019-04-23T06:26:40.906Z,12.50
2019-04-23T06:29:19.124Z,12.40
2019-04-23T06:31:45.715Z,12.40
2019-04-23T06:36:51.488Z,12.40
2019-04-23T06:39:23.281Z,12.40
2019-04-23T06:44:37.774Z,12.70
2019-04-23T06:47:06.632Z,12.60
2019-04-23T06:52:18.987Z,12.90
2019-04-23T06:57:25.518Z,12.80
2019-04-23T07:00:02.303Z,12.90
2019-04-23T07:02:42.209Z,13.00
2019-04-23T07:05:14.081Z,13.00
2019-04-23T07:07:58.369Z,13.10
2019-04-23T07:10:21.997Z,13.10
2019-04-23T07:12:57.726Z,13.00
2019-04-23T07:15:40.763Z,13.00
2019-04-23T07:17:54.343Z,12.80
2019-04-23T07:20:35.972Z,12.80
2019-04-23T07:23:13.446Z,12.80
2019-04-23T07:25:38.608Z,12.80
2019-04-23T07:28:19.453Z,12.70
2019-04-23T07:30:52.098Z,12.80
2019-04-23T07:33:32.688Z,12.90
2019-04-23T07:35:59.956Z,12.90
2019-04-23T07:39:04.529Z,12.90
2019-04-23T07:41:56.362Z,13.10
2019-04-23T07:44:42.528Z,13.10
2019-04-23T07:47:25.149Z,13.10
2019-04-23T07:50:09.802Z,13.10
2019-04-23T07:52:41.025Z,13.10
2019-04-23T07:55:06.780Z,13.10
2019-04-23T07:57:40.110Z,13.20
2019-04-23T08:00:18.344Z,13.20
2019-04-23T08:02:43.395Z,13.10
2019-04-23T08:05:22.518Z,13.20
2019-04-23T08:07:55.840Z,13.20
2019-04-23T08:10:31.796Z,13.20
2019-04-23T08:13:08.507Z,13.30
2019-04-23T08:15:42.587Z,13.40
2019-04-23T08:20:50.894Z,13.30
2019-04-23T08:23:56.942Z,13.20
2019-04-23T08:29:30.574Z,13.40
2019-04-23T08:32:10.740Z,13.40
2019-04-23T08:34:57.782Z,13.20
2019-04-23T08:39:45.427Z,13.10
2019-04-23T08:42:33.424Z,13.00
2019-04-23T08:48:15.586Z,13.00
2019-04-23T08:58:34.080Z,13.00
2019-04-23T09:06:10.775Z,12.90
2019-04-23T09:08:45.259Z,13.00
2019-04-23T09:11:44.026Z,13.00
2019-04-23T09:16:29.533Z,12.90
2019-04-23T09:19:02.807Z,12.90
2019-04-23T09:21:37.404Z,13.00
2019-04-23T09:24:04.231Z,13.00
2019-04-23T09:26:40.575Z,13.00
2019-04-23T09:32:22.394Z,13.10
2019-04-23T09:35:02.342Z,13.00
2019-04-23T09:40:51.883Z,13.00
2019-04-23T09:43:19.523Z,12.90
2019-04-23T09:45:57.999Z,12.90
2019-04-23T09:48:29.934Z,12.80
2019-04-23T09:51:02.646Z,12.70
2019-04-23T09:53:34.232Z,12.60
2019-04-23T09:56:07.298Z,12.60
2019-04-23T09:58:49.941Z,12.60
2019-04-23T10:01:27.829Z,12.60
2019-04-23T10:03:50.842Z,12.50
2019-04-23T10:06:18.967Z,12.40
2019-04-23T10:08:52.006Z,12.40
2019-04-23T10:11:20.047Z,12.40
2019-04-23T10:13:52.866Z,12.40
2019-04-23T10:16:30.263Z,12.40
2019-04-23T10:19:01.045Z,12.30
2019-04-23T10:21:37.459Z,12.40
2019-04-23T10:24:10.107Z,12.50
2019-04-23T10:26:43.821Z,12.60
2019-04-23T10:29:20.553Z,12.60
2019-04-23T10:31:53.653Z,12.70
2019-04-23T10:34:27.395Z,12.70
2019-04-23T10:36:59.693Z,12.70
2019-04-23T10:39:37.085Z,12.70
2019-04-23T10:42:07.822Z,12.80
2019-04-23T10:45:14.865Z,12.90
2019-04-23T10:48:28.956Z,12.90
2019-04-23T10:51:25.002Z,12.90
2019-04-23T10:54:07.370Z,12.90
2019-04-23T10:59:12.028Z,12.90
2019-04-23T11:01:45.078Z,12.90
2019-04-23T11:04:44.365Z,12.90
2019-04-23T11:06:50.730Z,12.90
2019-04-23T11:09:42.377Z,12.90
2019-04-23T11:12:12.339Z,12.70
2019-04-23T11:14:46.189Z,12.60
2019-04-23T11:17:17.106Z,12.40
2019-04-23T11:25:00.161Z,12.10
2019-04-23T11:30:10.643Z,11.80
2019-04-23T11:38:16.108Z,11.80
2019-04-23T11:40:21.487Z,11.80
2019-04-23T11:42:57.936Z,11.80
2019-04-23T11:45:41.673Z,11.80
2019-04-23T11:48:27.886Z,11.80
2019-04-23T11:51:17.485Z,11.80
2019-04-23T11:53:13.067Z,11.80
2019-04-23T12:01:37.436Z,11.80
2019-04-23T12:06:52.488Z,11.70
2019-04-23T12:12:23.757Z,11.70
2019-04-23T12:14:51.199Z,11.70
2019-04-23T12:17:33.022Z,11.70
2019-04-23T12:22:53.239Z,11.60
2019-04-23T12:27:38.646Z,11.60
2019-04-23T12:35:29.147Z,11.50
2019-04-23T12:40:56.442Z,11.40
2019-04-23T12:45:47.413Z,11.40
2019-04-23T12:51:21.410Z,11.20
2019-04-23T12:56:08.842Z,11.20
2019-04-23T12:58:32.207Z,11.20
2019-04-23T13:01:13.957Z,11.20
2019-04-23T13:03:59.619Z,11.10
2019-04-23T13:06:20.925Z,11.00
2019-04-23T13:09:21.956Z,10.90
2019-04-23T13:14:11.849Z,10.90
2019-04-23T13:16:44.584Z,10.90
2019-04-23T13:19:26.400Z,10.80
2019-04-23T13:21:57.116Z,10.80
2019-04-23T13:24:44.092Z,10.70
2019-04-23T13:27:21.540Z,10.70
2019-04-23T13:30:06.761Z,10.80
2019-04-23T13:32:29.272Z,10.70
2019-04-23T13:35:15.432Z,10.70
2019-04-23T13:37:51.078Z,10.70
2019-04-23T13:40:09.354Z,10.80
2019-04-23T13:45:33.750Z,10.70
2019-04-23T13:47:53.234Z,10.70
2019-04-23T13:50:37.229Z,10.70
2019-04-23T13:55:32.209Z,10.60
2019-04-23T13:58:15.012Z,10.50
2019-04-23T14:00:54.125Z,10.50
2019-04-23T14:03:26.434Z,10.40
2019-04-23T14:08:47.394Z,10.40
2019-04-23T14:21:34.604Z,10.30
2019-04-23T14:26:34.145Z,10.40
2019-04-23T14:29:13.043Z,10.40
2019-04-23T14:31:45.581Z,10.30
2019-04-23T14:34:15.826Z,10.30
2019-04-23T14:36:57.774Z,10.30
2019-04-23T14:42:16.007Z,10.20
2019-04-23T14:44:41.026Z,10.30
2019-04-23T14:50:24.630Z,10.20
2019-04-23T14:52:40.079Z,10.30
2019-04-23T14:55:43.901Z,10.30
2019-04-23T14:57:51.478Z,10.30
2019-04-23T15:03:03.851Z,10.40
2019-04-23T15:05:36.039Z,10.40
2019-04-23T15:08:02.154Z,10.40
2019-04-23T15:10:41.081Z,10.50
2019-04-23T15:13:14.740Z,10.50
2019-04-23T15:15:51.406Z,10.50
2019-04-23T15:18:46.766Z,10.50
2019-04-23T15:28:32.719Z,10.50
2019-04-23T15:36:59.384Z,10.50
2019-04-23T15:39:19.175Z,10.50
2019-04-23T15:41:49.555Z,10.50
2019-04-23T15:44:13.501Z,10.60
2019-04-23T15:46:59.314Z,10.60
2019-04-23T15:52:03.817Z,10.60
2019-04-23T15:54:37.538Z,10.60
2019-04-23T15:57:07.174Z,10.70
2019-04-23T15:59:44.235Z,10.70
2019-04-23T16:01:46.172Z,10.70
2019-04-23T16:04:20.069Z,10.70
2019-04-23T16:06:53.917Z,10.70
2019-04-23T16:10:04.443Z,10.60
2019-04-23T16:12:27.723Z,10.70
2019-04-23T16:15:07.830Z,10.70
2019-04-23T16:17:36.615Z,10.70
2019-04-23T16:20:37.686Z,10.80
2019-04-23T16:22:57.316Z,10.80
2019-04-23T16:25:37.870Z,10.80
2019-04-23T16:28:23.937Z,10.80
2019-04-23T16:30:59.579Z,10.80
2019-04-23T16:33:20.155Z,10.80
2019-04-23T16:38:45.413Z,10.90
2019-04-23T16:41:20.068Z,10.90
2019-04-23T16:43:49.245Z,10.90
2019-04-23T16:46:28.679Z,10.90
2019-04-23T16:49:10.123Z,10.90
2019-04-23T16:54:09.978Z,10.90
2019-04-23T16:56:55.355Z,11.00
2019-04-23T17:01:52.253Z,11.00
2019-04-23T17:06:57.735Z,11.00
2019-04-23T17:09:37.368Z,11.00
2019-04-23T17:12:10.784Z,11.00
2019-04-23T17:14:32.640Z,10.90
2019-04-23T17:17:06.454Z,10.90
2019-04-23T17:19:47.198Z,10.90
2019-04-23T17:22:17.765Z,10.90
2019-04-23T17:25:01.212Z,11.00
2019-04-23T17:27:28.136Z,11.00
2019-04-23T17:30:04.853Z,11.00
2019-04-23T17:33:01.657Z,11.00
2019-04-23T17:35:45.553Z,11.00
2019-04-23T17:38:15.064Z,11.00
2019-04-23T17:41:02.231Z,11.00
2019-04-23T17:43:32.886Z,11.00
2019-04-23T17:46:05.378Z,11.00
2019-04-23T17:48:34.668Z,11.00
2019-04-23T17:51:13.337Z,11.00
2019-04-23T17:56:39.324Z,11.00
2019-04-23T17:59:00.675Z,11.00
2019-04-23T18:01:43.259Z,11.00
2019-04-23T18:04:15.879Z,11.00
2019-04-23T18:07:00.459Z,11.00
2019-04-23T18:09:25.564Z,11.00
2019-04-23T18:11:52.265Z,11.00
2019-04-23T18:14:18.236Z,11.00
2019-04-23T18:16:57.531Z,11.00
2019-04-23T18:19:29.873Z,11.10
2019-04-23T18:22:19.156Z,11.10
2019-04-23T18:25:04.375Z,11.10
2019-04-23T18:27:38.636Z,11.10
2019-04-23T18:30:25.952Z,11.10
2019-04-23T18:35:33.937Z,11.10
2019-04-23T18:38:25.073Z,11.10
2019-04-23T18:43:29.879Z,11.10
2019-04-23T18:46:00.752Z,11.10
2019-04-23T18:51:03.356Z,11.00
2019-04-23T19:01:32.553Z,10.90
2019-04-23T19:06:41.272Z,10.90
2019-04-23T19:10:17.141Z,10.90
2019-04-23T19:13:04.405Z,11.00
2019-04-23T19:15:37.306Z,11.00
2019-04-23T19:17:59.012Z,11.00
2019-04-23T19:20:53.751Z,11.00
2019-04-23T19:23:16.268Z,11.00
2019-04-23T19:25:46.818Z,11.00
2019-04-23T19:31:25.898Z,11.00
2019-04-23T19:34:14.561Z,11.00
2019-04-23T19:36:49.166Z,11.10
2019-04-23T19:39:19.542Z,11.10
2019-04-23T19:44:24.811Z,11.10
2019-04-23T19:49:50.745Z,11.20
2019-04-23T19:52:51.995Z,11.20
2019-04-23T19:55:26.247Z,11.20
2019-04-23T19:58:27.736Z,11.30
2019-04-23T20:00:51.775Z,11.20
2019-04-23T20:03:22.227Z,11.30
2019-04-23T20:05:47.021Z,11.30
2019-04-23T20:08:34.297Z,11.30
2019-04-23T20:10:55.974Z,11.30
2019-04-23T20:13:30.340Z,11.30
2019-04-23T20:18:46.412Z,11.40
2019-04-23T20:21:03.424Z,11.30
2019-04-23T20:26:23.544Z,11.30
2019-04-23T20:34:40.137Z,11.30
2019-04-23T20:36:59.502Z,11.20
2019-04-23T20:47:22.797Z,11.10
2019-04-23T20:49:48.719Z,11.20
2019-04-23T20:52:27.309Z,11.20
2019-04-23T20:55:06.758Z,11.20
2019-04-23T20:57:45.419Z,11.20
2019-04-23T21:00:23.470Z,11.20
2019-04-23T21:04:36.539Z,11.20
2019-04-23T21:05:41.847Z,11.20
2019-04-23T21:08:14.835Z,11.20
2019-04-23T21:10:56.864Z,11.20
2019-04-23T21:13:50.724Z,11.20
2019-04-23T21:15:57.875Z,11.10
2019-04-23T21:23:50.158Z,11.10
2019-04-23T21:26:20.193Z,11.10
2019-04-23T21:28:55.263Z,11.10
2019-04-23T21:31:40.266Z,11.40
2019-04-23T21:34:35.388Z,11.60
2019-04-23T21:36:49.526Z,11.60
2019-04-23T21:39:47.727Z,11.60
2019-04-23T21:42:41.133Z,11.60
2019-04-23T21:45:09.105Z,11.60
2019-04-23T21:47:48.251Z,11.40
2019-04-23T21:52:54.188Z,11.40
2019-04-23T21:55:34.147Z,11.40
2019-04-23T22:00:44.232Z,11.40
2019-04-23T22:05:51.181Z,11.30
2019-04-23T22:08:15.535Z,11.20
2019-04-23T22:11:08.766Z,11.20
2019-04-23T22:13:48.043Z,11.20
2019-04-23T22:16:07.397Z,11.20
2019-04-23T22:18:52.765Z,11.20
2019-04-23T22:23:50.971Z,11.20
2019-04-23T22:26:23.884Z,11.20
2019-04-23T22:29:05.533Z,11.20
2019-04-23T22:31:33.746Z,11.20
2019-04-23T22:36:36.701Z,11.30
2019-04-23T22:41:42.192Z,11.20
2019-04-23T22:44:17.976Z,11.20
2019-04-23T22:54:38.537Z,11.20
2019-04-23T22:57:04.472Z,11.20
2019-04-23T22:59:55.503Z,11.20
2019-04-23T23:02:52.707Z,11.20
2019-04-23T23:10:19.986Z,11.20
2019-04-23T23:18:07.400Z,11.10
2019-04-23T23:20:41.776Z,11.10
2019-04-23T23:23:14.454Z,11.10
2019-04-23T23:25:52.021Z,11.10
2019-04-23T23:28:26.097Z,11.10
2019-04-23T23:33:24.682Z,11.00
2019-04-23T23:36:12.396Z,11.00
2019-04-23T23:43:44.426Z,11.00
2019-04-23T23:46:22.041Z,11.00
2019-04-23T23:48:48.462Z,11.00
2019-04-23T23:51:21.562Z,11.00
2019-04-23T23:56:30.213Z,11.00
2019-04-23T23:59:13.107Z,11.00
